sensor_id;sensor_type;location;lat;lon;timestamp;P1;durP1;ratioP1;P2;durP2;ratioP2
22388;SDS011;11362;48.102;11.620;2023-07-28T00:01:29;2.27;;;2.17;;
22388;SDS011;11362;48.102;11.620;2023-07-28T00:03:55;2.43;;;2.33;;
22388;SDS011;11362;48.102;11.620;2023-07-28T00:06:20;2.20;;;2.10;;
22388;SDS011;11362;48.102;11.620;2023-07-28T00:08:46;2.50;;;2.30;;
22388;SDS011;11362;48.102;11.620;2023-07-28T00:11:11;2.60;;;2.40;;
22388;SDS011;11362;48.102;11.620;2023-07-28T00:13:38;2.97;;;2.70;;
22388;SDS011;11362;48.102;11.620;2023-07-28T00:18:36;2.40;;;2.20;;
22388;SDS011;11362;48.102;11.620;2023-07-28T00:21:01;2.10;;;2.00;;
22388;SDS011;11362;48.102;11.620;2023-07-28T00:23:27;1.77;;;1.70;;
22388;SDS011;11362;48.102;11.620;2023-07-28T00:25:53;2.70;;;2.50;;
22388;SDS011;11362;48.102;11.620;2023-07-28T00:28:18;2.23;;;2.03;;
22388;SDS011;11362;48.102;11.620;2023-07-28T00:30:43;2.37;;;2.27;;
22388;SDS011;11362;48.102;11.620;2023-07-28T00:33:09;3.93;;;2.47;;
22388;SDS011;11362;48.102;11.620;2023-07-28T00:35:34;3.70;;;2.10;;
22388;SDS011;11362;48.102;11.620;2023-07-28T00:37:59;2.10;;;2.00;;
22388;SDS011;11362;48.102;11.620;2023-07-28T00:40:24;2.00;;;1.90;;
22388;SDS011;11362;48.102;11.620;2023-07-28T00:45:33;2.63;;;2.50;;
22388;SDS011;11362;48.102;11.620;2023-07-28T00:47:58;2.50;;;2.30;;
22388;SDS011;11362;48.102;11.620;2023-07-28T00:50:25;2.87;;;2.47;;
22388;SDS011;11362;48.102;11.620;2023-07-28T00:52:51;3.10;;;2.40;;
22388;SDS011;11362;48.102;11.620;2023-07-28T00:55:17;2.40;;;2.20;;
22388;SDS011;11362;48.102;11.620;2023-07-28T00:57:43;2.57;;;1.90;;
22388;SDS011;11362;48.102;11.620;2023-07-28T01:00:09;2.57;;;2.37;;
22388;SDS011;11362;48.102;11.620;2023-07-28T01:02:35;2.50;;;2.00;;
22388;SDS011;11362;48.102;11.620;2023-07-28T01:05:01;2.23;;;2.13;;
22388;SDS011;11362;48.102;11.620;2023-07-28T01:07:27;2.37;;;2.27;;
22388;SDS011;11362;48.102;11.620;2023-07-28T01:11:54;2.10;;;1.93;;
22388;SDS011;11362;48.102;11.620;2023-07-28T01:14:19;2.20;;;2.00;;
22388;SDS011;11362;48.102;11.620;2023-07-28T01:16:45;2.23;;;2.13;;
22388;SDS011;11362;48.102;11.620;2023-07-28T01:19:10;2.47;;;2.37;;
22388;SDS011;11362;48.102;11.620;2023-07-28T01:21:37;2.23;;;2.13;;
22388;SDS011;11362;48.102;11.620;2023-07-28T01:26:45;2.60;;;2.40;;
22388;SDS011;11362;48.102;11.620;2023-07-28T01:29:11;1.90;;;1.80;;
22388;SDS011;11362;48.102;11.620;2023-07-28T01:31:38;2.10;;;1.90;;
22388;SDS011;11362;48.102;11.620;2023-07-28T01:34:04;2.10;;;2.00;;
22388;SDS011;11362;48.102;11.620;2023-07-28T01:39:40;2.07;;;1.90;;
22388;SDS011;11362;48.102;11.620;2023-07-28T01:42:05;2.37;;;2.20;;
22388;SDS011;11362;48.102;11.620;2023-07-28T01:44:31;2.10;;;2.00;;
22388;SDS011;11362;48.102;11.620;2023-07-28T01:46:56;1.97;;;1.87;;
22388;SDS011;11362;48.102;11.620;2023-07-28T01:49:21;3.13;;;2.23;;
22388;SDS011;11362;48.102;11.620;2023-07-28T01:51:47;2.40;;;2.20;;
22388;SDS011;11362;48.102;11.620;2023-07-28T01:54:12;1.90;;;1.70;;
22388;SDS011;11362;48.102;11.620;2023-07-28T01:56:37;2.07;;;1.97;;
22388;SDS011;11362;48.102;11.620;2023-07-28T01:59:02;2.30;;;2.20;;
22388;SDS011;11362;48.102;11.620;2023-07-28T02:01:28;2.13;;;2.03;;
22388;SDS011;11362;48.102;11.620;2023-07-28T02:03:53;2.10;;;2.00;;
22388;SDS011;11362;48.102;11.620;2023-07-28T02:09:16;1.90;;;1.80;;
22388;SDS011;11362;48.102;11.620;2023-07-28T02:11:42;2.30;;;2.20;;
22388;SDS011;11362;48.102;11.620;2023-07-28T02:14:07;2.10;;;2.00;;
22388;SDS011;11362;48.102;11.620;2023-07-28T02:16:32;2.07;;;1.97;;
22388;SDS011;11362;48.102;11.620;2023-07-28T02:18:57;1.97;;;1.87;;
22388;SDS011;11362;48.102;11.620;2023-07-28T02:21:23;1.97;;;1.87;;
22388;SDS011;11362;48.102;11.620;2023-07-28T02:23:48;1.80;;;1.70;;
22388;SDS011;11362;48.102;11.620;2023-07-28T02:26:13;2.10;;;2.00;;
22388;SDS011;11362;48.102;11.620;2023-07-28T02:28:39;1.73;;;1.63;;
22388;SDS011;11362;48.102;11.620;2023-07-28T02:31:04;2.40;;;1.87;;
22388;SDS011;11362;48.102;11.620;2023-07-28T02:36:43;1.97;;;1.87;;
22388;SDS011;11362;48.102;11.620;2023-07-28T02:39:09;2.33;;;2.13;;
22388;SDS011;11362;48.102;11.620;2023-07-28T02:41:34;2.23;;;2.00;;
22388;SDS011;11362;48.102;11.620;2023-07-28T02:43:59;1.90;;;1.70;;
22388;SDS011;11362;48.102;11.620;2023-07-28T02:46:25;1.87;;;1.77;;
22388;SDS011;11362;48.102;11.620;2023-07-28T02:48:50;2.00;;;1.90;;
22388;SDS011;11362;48.102;11.620;2023-07-28T02:51:15;1.80;;;1.70;;
22388;SDS011;11362;48.102;11.620;2023-07-28T02:53:40;1.97;;;1.87;;
22388;SDS011;11362;48.102;11.620;2023-07-28T02:56:05;1.80;;;1.70;;
22388;SDS011;11362;48.102;11.620;2023-07-28T02:58:31;1.67;;;1.60;;
22388;SDS011;11362;48.102;11.620;2023-07-28T03:03:34;1.87;;;1.77;;
22388;SDS011;11362;48.102;11.620;2023-07-28T03:05:59;3.37;;;2.07;;
22388;SDS011;11362;48.102;11.620;2023-07-28T03:08:24;1.90;;;1.80;;
22388;SDS011;11362;48.102;11.620;2023-07-28T03:10:49;3.47;;;1.80;;
22388;SDS011;11362;48.102;11.620;2023-07-28T03:13:15;1.70;;;1.60;;
22388;SDS011;11362;48.102;11.620;2023-07-28T03:15:40;2.10;;;1.80;;
22388;SDS011;11362;48.102;11.620;2023-07-28T03:18:05;1.80;;;1.70;;
22388;SDS011;11362;48.102;11.620;2023-07-28T03:20:30;1.87;;;1.60;;
22388;SDS011;11362;48.102;11.620;2023-07-28T03:22:56;1.93;;;1.83;;
22388;SDS011;11362;48.102;11.620;2023-07-28T03:25:21;2.17;;;1.97;;
22388;SDS011;11362;48.102;11.620;2023-07-28T03:30:45;2.00;;;1.90;;
22388;SDS011;11362;48.102;11.620;2023-07-28T03:33:10;2.20;;;1.80;;
22388;SDS011;11362;48.102;11.620;2023-07-28T03:35:36;1.83;;;1.73;;
22388;SDS011;11362;48.102;11.620;2023-07-28T03:38:01;1.90;;;1.70;;
22388;SDS011;11362;48.102;11.620;2023-07-28T03:40:26;1.93;;;1.83;;
22388;SDS011;11362;48.102;11.620;2023-07-28T03:42:52;2.30;;;1.87;;
22388;SDS011;11362;48.102;11.620;2023-07-28T03:45:18;1.90;;;1.63;;
22388;SDS011;11362;48.102;11.620;2023-07-28T03:47:43;1.90;;;1.80;;
22388;SDS011;11362;48.102;11.620;2023-07-28T03:50:09;1.80;;;1.70;;
22388;SDS011;11362;48.102;11.620;2023-07-28T03:52:34;2.33;;;1.90;;
22388;SDS011;11362;48.102;11.620;2023-07-28T03:57:36;2.23;;;1.80;;
22388;SDS011;11362;48.102;11.620;2023-07-28T04:00:02;1.77;;;1.67;;
22388;SDS011;11362;48.102;11.620;2023-07-28T04:02:27;1.70;;;1.60;;
22388;SDS011;11362;48.102;11.620;2023-07-28T04:04:53;1.70;;;1.60;;
22388;SDS011;11362;48.102;11.620;2023-07-28T04:07:19;1.90;;;1.80;;
22388;SDS011;11362;48.102;11.620;2023-07-28T04:09:45;1.97;;;1.87;;
22388;SDS011;11362;48.102;11.620;2023-07-28T04:12:10;1.77;;;1.67;;
22388;SDS011;11362;48.102;11.620;2023-07-28T04:14:35;2.33;;;1.67;;
22388;SDS011;11362;48.102;11.620;2023-07-28T04:17:00;2.27;;;2.10;;
22388;SDS011;11362;48.102;11.620;2023-07-28T04:19:26;1.60;;;1.50;;
22388;SDS011;11362;48.102;11.620;2023-07-28T04:25:03;1.63;;;1.53;;
22388;SDS011;11362;48.102;11.620;2023-07-28T04:27:29;1.87;;;1.77;;
22388;SDS011;11362;48.102;11.620;2023-07-28T04:29:54;1.97;;;1.70;;
22388;SDS011;11362;48.102;11.620;2023-07-28T04:32:20;1.90;;;1.80;;
22388;SDS011;11362;48.102;11.620;2023-07-28T04:34:45;1.47;;;1.40;;
22388;SDS011;11362;48.102;11.620;2023-07-28T04:37:10;1.43;;;1.43;;
22388;SDS011;11362;48.102;11.620;2023-07-28T04:39:35;1.70;;;1.60;;
22388;SDS011;11362;48.102;11.620;2023-07-28T04:42:01;1.80;;;1.70;;
22388;SDS011;11362;48.102;11.620;2023-07-28T04:44:26;1.83;;;1.73;;
22388;SDS011;11362;48.102;11.620;2023-07-28T04:46:51;2.17;;;1.70;;
22388;SDS011;11362;48.102;11.620;2023-07-28T04:52:14;1.83;;;1.70;;
22388;SDS011;11362;48.102;11.620;2023-07-28T04:54:40;2.23;;;2.03;;
22388;SDS011;11362;48.102;11.620;2023-07-28T04:57:05;2.57;;;1.90;;
22388;SDS011;11362;48.102;11.620;2023-07-28T04:59:30;3.90;;;1.83;;
22388;SDS011;11362;48.102;11.620;2023-07-28T05:01:56;8.23;;;1.87;;
22388;SDS011;11362;48.102;11.620;2023-07-28T05:04:21;3.43;;;1.70;;
22388;SDS011;11362;48.102;11.620;2023-07-28T05:06:47;4.93;;;2.40;;
22388;SDS011;11362;48.102;11.620;2023-07-28T05:09:12;4.57;;;2.00;;
22388;SDS011;11362;48.102;11.620;2023-07-28T05:11:37;2.97;;;1.60;;
22388;SDS011;11362;48.102;11.620;2023-07-28T05:14:02;2.37;;;1.80;;
22388;SDS011;11362;48.102;11.620;2023-07-28T05:18:10;7.73;;;2.30;;
22388;SDS011;11362;48.102;11.620;2023-07-28T05:20:35;6.80;;;2.30;;
22388;SDS011;11362;48.102;11.620;2023-07-28T05:23:01;4.07;;;2.10;;
22388;SDS011;11362;48.102;11.620;2023-07-28T05:25:26;6.13;;;2.40;;
22388;SDS011;11362;48.102;11.620;2023-07-28T05:27:51;7.97;;;2.70;;
22388;SDS011;11362;48.102;11.620;2023-07-28T05:30:16;4.67;;;2.03;;
22388;SDS011;11362;48.102;11.620;2023-07-28T05:32:42;7.13;;;2.47;;
22388;SDS011;11362;48.102;11.620;2023-07-28T05:35:07;6.33;;;2.23;;
22388;SDS011;11362;48.102;11.620;2023-07-28T05:37:33;11.53;;;2.70;;
22388;SDS011;11362;48.102;11.620;2023-07-28T05:39:58;8.33;;;2.43;;
22388;SDS011;11362;48.102;11.620;2023-07-28T05:44:56;11.73;;;2.73;;
22388;SDS011;11362;48.102;11.620;2023-07-28T05:47:21;13.43;;;3.90;;
22388;SDS011;11362;48.102;11.620;2023-07-28T05:49:46;15.73;;;4.17;;
22388;SDS011;11362;48.102;11.620;2023-07-28T05:52:12;23.77;;;5.10;;
22388;SDS011;11362;48.102;11.620;2023-07-28T05:54:37;25.10;;;5.50;;
22388;SDS011;11362;48.102;11.620;2023-07-28T05:57:03;41.00;;;5.43;;
22388;SDS011;11362;48.102;11.620;2023-07-28T05:59:28;26.70;;;4.67;;
22388;SDS011;11362;48.102;11.620;2023-07-28T06:01:53;19.00;;;4.13;;
22388;SDS011;11362;48.102;11.620;2023-07-28T06:04:19;29.70;;;4.93;;
22388;SDS011;11362;48.102;11.620;2023-07-28T06:06:44;21.27;;;4.10;;
22388;SDS011;11362;48.102;11.620;2023-07-28T06:11:22;23.23;;;4.03;;
22388;SDS011;11362;48.102;11.620;2023-07-28T06:13:47;11.93;;;3.23;;
22388;SDS011;11362;48.102;11.620;2023-07-28T06:16:13;17.67;;;3.93;;
22388;SDS011;11362;48.102;11.620;2023-07-28T06:18:39;16.90;;;4.37;;
22388;SDS011;11362;48.102;11.620;2023-07-28T06:21:04;17.37;;;3.73;;
22388;SDS011;11362;48.102;11.620;2023-07-28T06:23:30;17.97;;;4.53;;
22388;SDS011;11362;48.102;11.620;2023-07-28T06:25:55;18.27;;;4.00;;
22388;SDS011;11362;48.102;11.620;2023-07-28T06:28:20;8.53;;;3.43;;
22388;SDS011;11362;48.102;11.620;2023-07-28T06:30:46;14.77;;;3.07;;
22388;SDS011;11362;48.102;11.620;2023-07-28T06:33:11;10.37;;;2.80;;
22388;SDS011;11362;48.102;11.620;2023-07-28T06:37:34;13.10;;;3.70;;
22388;SDS011;11362;48.102;11.620;2023-07-28T06:40:01;11.37;;;3.03;;
22388;SDS011;11362;48.102;11.620;2023-07-28T06:42:26;13.40;;;3.33;;
22388;SDS011;11362;48.102;11.620;2023-07-28T06:44:52;7.63;;;3.23;;
22388;SDS011;11362;48.102;11.620;2023-07-28T06:47:17;12.67;;;2.97;;
22388;SDS011;11362;48.102;11.620;2023-07-28T06:49:43;9.47;;;2.70;;
22388;SDS011;11362;48.102;11.620;2023-07-28T06:52:09;11.10;;;3.63;;
22388;SDS011;11362;48.102;11.620;2023-07-28T06:54:34;9.40;;;3.70;;
22388;SDS011;11362;48.102;11.620;2023-07-28T06:57:00;7.47;;;2.60;;
22388;SDS011;11362;48.102;11.620;2023-07-28T06:59:25;11.00;;;3.10;;
22388;SDS011;11362;48.102;11.620;2023-07-28T07:04:15;7.30;;;2.77;;
22388;SDS011;11362;48.102;11.620;2023-07-28T07:06:40;7.87;;;2.47;;
22388;SDS011;11362;48.102;11.620;2023-07-28T07:09:05;9.67;;;2.60;;
22388;SDS011;11362;48.102;11.620;2023-07-28T07:11:30;6.20;;;2.27;;
22388;SDS011;11362;48.102;11.620;2023-07-28T07:13:56;5.60;;;2.43;;
22388;SDS011;11362;48.102;11.620;2023-07-28T07:16:21;6.10;;;2.17;;
22388;SDS011;11362;48.102;11.620;2023-07-28T07:18:46;4.90;;;2.53;;
22388;SDS011;11362;48.102;11.620;2023-07-28T07:21:11;7.03;;;2.57;;
22388;SDS011;11362;48.102;11.620;2023-07-28T07:23:37;5.43;;;2.97;;
22388;SDS011;11362;48.102;11.620;2023-07-28T07:26:02;5.30;;;2.17;;
22388;SDS011;11362;48.102;11.620;2023-07-28T07:31:41;5.33;;;2.50;;
22388;SDS011;11362;48.102;11.620;2023-07-28T07:34:07;3.63;;;2.43;;
22388;SDS011;11362;48.102;11.620;2023-07-28T07:36:32;4.00;;;2.30;;
22388;SDS011;11362;48.102;11.620;2023-07-28T07:38:57;4.90;;;2.47;;
22388;SDS011;11362;48.102;11.620;2023-07-28T07:41:23;3.00;;;2.03;;
22388;SDS011;11362;48.102;11.620;2023-07-28T07:43:49;6.30;;;2.20;;
22388;SDS011;11362;48.102;11.620;2023-07-28T07:46:16;3.93;;;2.40;;
22388;SDS011;11362;48.102;11.620;2023-07-28T07:48:42;3.73;;;2.60;;
22388;SDS011;11362;48.102;11.620;2023-07-28T07:51:07;2.10;;;1.80;;
22388;SDS011;11362;48.102;11.620;2023-07-28T07:53:33;4.50;;;2.43;;
22388;SDS011;11362;48.102;11.620;2023-07-28T07:58:38;7.17;;;2.33;;
22388;SDS011;11362;48.102;11.620;2023-07-28T08:01:03;3.13;;;2.20;;
22388;SDS011;11362;48.102;11.620;2023-07-28T08:03:29;4.17;;;2.17;;
22388;SDS011;11362;48.102;11.620;2023-07-28T08:05:54;3.10;;;2.20;;
22388;SDS011;11362;48.102;11.620;2023-07-28T08:08:19;2.87;;;1.60;;
22388;SDS011;11362;48.102;11.620;2023-07-28T08:10:45;5.33;;;2.13;;
22388;SDS011;11362;48.102;11.620;2023-07-28T08:13:11;2.27;;;2.07;;
22388;SDS011;11362;48.102;11.620;2023-07-28T08:15:36;3.77;;;2.00;;
22388;SDS011;11362;48.102;11.620;2023-07-28T08:18:02;2.40;;;2.20;;
22388;SDS011;11362;48.102;11.620;2023-07-28T08:20:27;6.47;;;1.93;;
22388;SDS011;11362;48.102;11.620;2023-07-28T08:25:30;3.03;;;2.07;;
22388;SDS011;11362;48.102;11.620;2023-07-28T08:27:55;4.03;;;1.80;;
22388;SDS011;11362;48.102;11.620;2023-07-28T08:30:20;2.50;;;2.00;;
22388;SDS011;11362;48.102;11.620;2023-07-28T08:32:46;1.87;;;1.73;;
22388;SDS011;11362;48.102;11.620;2023-07-28T08:35:11;2.00;;;1.90;;
22388;SDS011;11362;48.102;11.620;2023-07-28T08:37:37;2.83;;;1.73;;
22388;SDS011;11362;48.102;11.620;2023-07-28T08:40:02;1.57;;;1.47;;
22388;SDS011;11362;48.102;11.620;2023-07-28T08:42:31;2.10;;;1.97;;
22388;SDS011;11362;48.102;11.620;2023-07-28T08:45:02;3.77;;;1.80;;
22388;SDS011;11362;48.102;11.620;2023-07-28T08:47:28;4.33;;;1.73;;
22388;SDS011;11362;48.102;11.620;2023-07-28T08:51:57;2.60;;;2.00;;
22388;SDS011;11362;48.102;11.620;2023-07-28T08:54:23;3.17;;;1.87;;
22388;SDS011;11362;48.102;11.620;2023-07-28T08:56:49;3.43;;;1.97;;
22388;SDS011;11362;48.102;11.620;2023-07-28T08:59:23;5.10;;;1.83;;
22388;SDS011;11362;48.102;11.620;2023-07-28T09:01:50;3.60;;;1.90;;
22388;SDS011;11362;48.102;11.620;2023-07-28T09:04:15;2.60;;;1.83;;
22388;SDS011;11362;48.102;11.620;2023-07-28T09:06:44;3.47;;;1.90;;
22388;SDS011;11362;48.102;11.620;2023-07-28T09:09:09;4.40;;;1.93;;
22388;SDS011;11362;48.102;11.620;2023-07-28T09:11:43;2.10;;;1.90;;
22388;SDS011;11362;48.102;11.620;2023-07-28T09:14:12;3.60;;;1.90;;
22388;SDS011;11362;48.102;11.620;2023-07-28T09:19:10;3.50;;;2.07;;
22388;SDS011;11362;48.102;11.620;2023-07-28T09:21:37;1.90;;;1.80;;
22388;SDS011;11362;48.102;11.620;2023-07-28T09:24:04;2.07;;;1.77;;
22388;SDS011;11362;48.102;11.620;2023-07-28T09:26:40;2.10;;;1.90;;
22388;SDS011;11362;48.102;11.620;2023-07-28T09:29:14;4.87;;;2.20;;
22388;SDS011;11362;48.102;11.620;2023-07-28T09:31:41;2.23;;;1.70;;
22388;SDS011;11362;48.102;11.620;2023-07-28T09:34:07;2.97;;;1.93;;
22388;SDS011;11362;48.102;11.620;2023-07-28T09:36:33;2.77;;;2.20;;
22388;SDS011;11362;48.102;11.620;2023-07-28T09:38:59;3.00;;;2.13;;
22388;SDS011;11362;48.102;11.620;2023-07-28T09:41:26;3.20;;;1.87;;
22388;SDS011;11362;48.102;11.620;2023-07-28T09:46:22;3.13;;;1.87;;
22388;SDS011;11362;48.102;11.620;2023-07-28T09:48:48;1.97;;;1.77;;
22388;SDS011;11362;48.102;11.620;2023-07-28T09:51:17;1.83;;;1.50;;
22388;SDS011;11362;48.102;11.620;2023-07-28T09:53:52;2.90;;;1.97;;
22388;SDS011;11362;48.102;11.620;2023-07-28T09:56:20;2.83;;;1.97;;
22388;SDS011;11362;48.102;11.620;2023-07-28T09:58:51;3.10;;;1.80;;
22388;SDS011;11362;48.102;11.620;2023-07-28T10:01:18;2.03;;;1.93;;
22388;SDS011;11362;48.102;11.620;2023-07-28T10:03:44;3.13;;;1.67;;
22388;SDS011;11362;48.102;11.620;2023-07-28T10:06:10;2.10;;;1.87;;
22388;SDS011;11362;48.102;11.620;2023-07-28T10:08:36;1.67;;;1.57;;
22388;SDS011;11362;48.102;11.620;2023-07-28T10:13:41;2.40;;;1.70;;
22388;SDS011;11362;48.102;11.620;2023-07-28T10:16:08;4.70;;;2.00;;
22388;SDS011;11362;48.102;11.620;2023-07-28T10:18:33;1.43;;;1.30;;
22388;SDS011;11362;48.102;11.620;2023-07-28T10:21:05;2.30;;;2.10;;
22388;SDS011;11362;48.102;11.620;2023-07-28T10:23:33;3.07;;;1.40;;
22388;SDS011;11362;48.102;11.620;2023-07-28T10:26:00;2.27;;;2.07;;
22388;SDS011;11362;48.102;11.620;2023-07-28T10:28:26;1.70;;;1.60;;
22388;SDS011;11362;48.102;11.620;2023-07-28T10:30:55;1.60;;;1.50;;
22388;SDS011;11362;48.102;11.620;2023-07-28T10:33:27;1.70;;;1.60;;
22388;SDS011;11362;48.102;11.620;2023-07-28T10:35:52;2.20;;;2.00;;
22388;SDS011;11362;48.102;11.620;2023-07-28T10:39:46;1.47;;;1.37;;
22388;SDS011;11362;48.102;11.620;2023-07-28T10:42:12;2.17;;;1.97;;
22388;SDS011;11362;48.102;11.620;2023-07-28T10:44:37;2.20;;;1.70;;
22388;SDS011;11362;48.102;11.620;2023-07-28T10:47:06;1.83;;;1.73;;
22388;SDS011;11362;48.102;11.620;2023-07-28T10:49:33;1.93;;;1.50;;
22388;SDS011;11362;48.102;11.620;2023-07-28T10:51:58;2.90;;;1.80;;
22388;SDS011;11362;48.102;11.620;2023-07-28T10:54:24;2.13;;;1.80;;
22388;SDS011;11362;48.102;11.620;2023-07-28T10:56:49;1.87;;;1.77;;
22388;SDS011;11362;48.102;11.620;2023-07-28T10:59:14;2.60;;;1.70;;
22388;SDS011;11362;48.102;11.620;2023-07-28T11:01:40;2.20;;;1.70;;
22388;SDS011;11362;48.102;11.620;2023-07-28T11:06:47;3.03;;;2.30;;
22388;SDS011;11362;48.102;11.620;2023-07-28T11:09:14;2.13;;;1.80;;
22388;SDS011;11362;48.102;11.620;2023-07-28T11:11:42;3.03;;;1.60;;
22388;SDS011;11362;48.102;11.620;2023-07-28T11:14:08;2.67;;;1.90;;
22388;SDS011;11362;48.102;11.620;2023-07-28T11:16:38;2.03;;;1.93;;
22388;SDS011;11362;48.102;11.620;2023-07-28T11:19:09;2.27;;;2.00;;
22388;SDS011;11362;48.102;11.620;2023-07-28T11:21:38;1.90;;;1.70;;
22388;SDS011;11362;48.102;11.620;2023-07-28T11:24:06;2.40;;;2.30;;
22388;SDS011;11362;48.102;11.620;2023-07-28T11:26:32;1.80;;;1.70;;
22388;SDS011;11362;48.102;11.620;2023-07-28T11:29:00;1.73;;;1.63;;
22388;SDS011;11362;48.102;11.620;2023-07-28T11:31:25;4.33;;;1.87;;
22388;SDS011;11362;48.102;11.620;2023-07-28T11:33:50;1.83;;;1.73;;
22388;SDS011;11362;48.102;11.620;2023-07-28T11:38:26;1.70;;;1.60;;
22388;SDS011;11362;48.102;11.620;2023-07-28T11:40:52;2.20;;;2.00;;
22388;SDS011;11362;48.102;11.620;2023-07-28T11:43:18;2.00;;;1.90;;
22388;SDS011;11362;48.102;11.620;2023-07-28T11:45:44;2.00;;;1.87;;
22388;SDS011;11362;48.102;11.620;2023-07-28T11:48:09;1.70;;;1.37;;
22388;SDS011;11362;48.102;11.620;2023-07-28T11:50:35;1.80;;;1.70;;
22388;SDS011;11362;48.102;11.620;2023-07-28T11:53:03;1.77;;;1.67;;
22388;SDS011;11362;48.102;11.620;2023-07-28T11:55:29;1.90;;;1.80;;
22388;SDS011;11362;48.102;11.620;2023-07-28T11:57:55;1.47;;;1.40;;
22388;SDS011;11362;48.102;11.620;2023-07-28T12:00:30;2.70;;;1.77;;
22388;SDS011;11362;48.102;11.620;2023-07-28T12:05:38;2.10;;;1.90;;
22388;SDS011;11362;48.102;11.620;2023-07-28T12:08:04;2.17;;;1.90;;
22388;SDS011;11362;48.102;11.620;2023-07-28T12:10:29;2.20;;;1.80;;
22388;SDS011;11362;48.102;11.620;2023-07-28T12:12:55;1.97;;;1.87;;
22388;SDS011;11362;48.102;11.620;2023-07-28T12:15:24;1.70;;;1.60;;
22388;SDS011;11362;48.102;11.620;2023-07-28T12:18:09;2.40;;;1.80;;
22388;SDS011;11362;48.102;11.620;2023-07-28T12:20:37;4.43;;;1.70;;
22388;SDS011;11362;48.102;11.620;2023-07-28T12:23:22;1.77;;;1.67;;
22388;SDS011;11362;48.102;11.620;2023-07-28T12:25:48;1.73;;;1.63;;
22388;SDS011;11362;48.102;11.620;2023-07-28T12:28:14;1.90;;;1.80;;
22388;SDS011;11362;48.102;11.620;2023-07-28T12:33:04;1.83;;;1.73;;
22388;SDS011;11362;48.102;11.620;2023-07-28T12:35:30;1.90;;;1.63;;
22388;SDS011;11362;48.102;11.620;2023-07-28T12:37:57;1.50;;;1.50;;
22388;SDS011;11362;48.102;11.620;2023-07-28T12:40:23;1.93;;;1.50;;
22388;SDS011;11362;48.102;11.620;2023-07-28T12:42:48;2.20;;;2.00;;
22388;SDS011;11362;48.102;11.620;2023-07-28T12:45:14;2.53;;;1.97;;
22388;SDS011;11362;48.102;11.620;2023-07-28T12:47:40;4.23;;;1.77;;
22388;SDS011;11362;48.102;11.620;2023-07-28T12:50:05;3.90;;;2.13;;
22388;SDS011;11362;48.102;11.620;2023-07-28T12:52:31;3.70;;;2.20;;
22388;SDS011;11362;48.102;11.620;2023-07-28T12:54:56;3.00;;;1.70;;
22388;SDS011;11362;48.102;11.620;2023-07-28T12:59:44;2.80;;;2.07;;
22388;SDS011;11362;48.102;11.620;2023-07-28T13:02:10;3.87;;;2.30;;
22388;SDS011;11362;48.102;11.620;2023-07-28T13:04:35;4.17;;;2.00;;
22388;SDS011;11362;48.102;11.620;2023-07-28T13:07:00;2.63;;;2.43;;
22388;SDS011;11362;48.102;11.620;2023-07-28T13:09:26;3.10;;;2.13;;
22388;SDS011;11362;48.102;11.620;2023-07-28T13:11:51;3.67;;;2.10;;
22388;SDS011;11362;48.102;11.620;2023-07-28T13:14:16;4.00;;;2.00;;
22388;SDS011;11362;48.102;11.620;2023-07-28T13:16:41;2.93;;;1.90;;
22388;SDS011;11362;48.102;11.620;2023-07-28T13:19:07;2.73;;;2.10;;
22388;SDS011;11362;48.102;11.620;2023-07-28T13:21:32;3.03;;;2.07;;
22388;SDS011;11362;48.102;11.620;2023-07-28T13:26:35;2.13;;;1.93;;
22388;SDS011;11362;48.102;11.620;2023-07-28T13:29:00;2.53;;;2.00;;
22388;SDS011;11362;48.102;11.620;2023-07-28T13:31:25;6.07;;;1.70;;
22388;SDS011;11362;48.102;11.620;2023-07-28T13:33:50;2.40;;;2.20;;
22388;SDS011;11362;48.102;11.620;2023-07-28T13:36:16;3.40;;;2.30;;
22388;SDS011;11362;48.102;11.620;2023-07-28T13:38:41;4.07;;;1.70;;
22388;SDS011;11362;48.102;11.620;2023-07-28T13:41:06;1.83;;;1.73;;
22388;SDS011;11362;48.102;11.620;2023-07-28T13:43:32;2.90;;;1.97;;
22388;SDS011;11362;48.102;11.620;2023-07-28T13:45:58;3.90;;;2.47;;
22388;SDS011;11362;48.102;11.620;2023-07-28T13:48:23;1.90;;;1.80;;
22388;SDS011;11362;48.102;11.620;2023-07-28T13:53:27;2.50;;;2.27;;
22388;SDS011;11362;48.102;11.620;2023-07-28T13:55:52;2.63;;;1.53;;
22388;SDS011;11362;48.102;11.620;2023-07-28T13:58:17;3.43;;;1.80;;
22388;SDS011;11362;48.102;11.620;2023-07-28T14:00:43;3.47;;;1.87;;
22388;SDS011;11362;48.102;11.620;2023-07-28T14:03:08;2.73;;;2.17;;
22388;SDS011;11362;48.102;11.620;2023-07-28T14:05:33;3.30;;;2.17;;
22388;SDS011;11362;48.102;11.620;2023-07-28T14:07:59;1.90;;;1.67;;
22388;SDS011;11362;48.102;11.620;2023-07-28T14:10:24;2.20;;;2.00;;
22388;SDS011;11362;48.102;11.620;2023-07-28T14:12:51;5.33;;;2.00;;
22388;SDS011;11362;48.102;11.620;2023-07-28T14:15:16;2.47;;;2.27;;
22388;SDS011;11362;48.102;11.620;2023-07-28T14:17:41;3.13;;;2.03;;
22388;SDS011;11362;48.102;11.620;2023-07-28T14:22:53;2.23;;;2.03;;
22388;SDS011;11362;48.102;11.620;2023-07-28T14:25:19;2.90;;;2.00;;
22388;SDS011;11362;48.102;11.620;2023-07-28T14:27:44;1.97;;;1.83;;
22388;SDS011;11362;48.102;11.620;2023-07-28T14:30:09;1.90;;;1.80;;
22388;SDS011;11362;48.102;11.620;2023-07-28T14:32:35;1.70;;;1.60;;
22388;SDS011;11362;48.102;11.620;2023-07-28T14:35:01;1.87;;;1.77;;
22388;SDS011;11362;48.102;11.620;2023-07-28T14:37:27;2.10;;;1.90;;
22388;SDS011;11362;48.102;11.620;2023-07-28T14:39:52;2.03;;;1.93;;
22388;SDS011;11362;48.102;11.620;2023-07-28T14:42:17;2.00;;;1.60;;
22388;SDS011;11362;48.102;11.620;2023-07-28T14:44:42;1.73;;;1.63;;
22388;SDS011;11362;48.102;11.620;2023-07-28T14:50:05;2.87;;;1.97;;
22388;SDS011;11362;48.102;11.620;2023-07-28T14:52:30;2.10;;;2.00;;
22388;SDS011;11362;48.102;11.620;2023-07-28T14:54:56;3.03;;;1.93;;
22388;SDS011;11362;48.102;11.620;2023-07-28T14:57:21;2.17;;;1.93;;
22388;SDS011;11362;48.102;11.620;2023-07-28T14:59:46;3.17;;;1.97;;
22388;SDS011;11362;48.102;11.620;2023-07-28T15:02:11;1.93;;;1.83;;
22388;SDS011;11362;48.102;11.620;2023-07-28T15:04:37;2.97;;;2.20;;
22388;SDS011;11362;48.102;11.620;2023-07-28T15:07:02;2.00;;;1.90;;
22388;SDS011;11362;48.102;11.620;2023-07-28T15:09:28;2.23;;;1.97;;
22388;SDS011;11362;48.102;11.620;2023-07-28T15:11:53;4.60;;;2.47;;
22388;SDS011;11362;48.102;11.620;2023-07-28T15:15:15;2.47;;;2.30;;
22388;SDS011;11362;48.102;11.620;2023-07-28T15:17:41;2.63;;;2.43;;
22388;SDS011;11362;48.102;11.620;2023-07-28T15:20:06;2.10;;;1.90;;
22388;SDS011;11362;48.102;11.620;2023-07-28T15:22:32;2.30;;;2.10;;
22388;SDS011;11362;48.102;11.620;2023-07-28T15:24:57;2.60;;;2.27;;
22388;SDS011;11362;48.102;11.620;2023-07-28T15:27:22;4.57;;;2.90;;
22388;SDS011;11362;48.102;11.620;2023-07-28T15:29:48;5.90;;;2.20;;
22388;SDS011;11362;48.102;11.620;2023-07-28T15:32:13;12.37;;;3.00;;
22388;SDS011;11362;48.102;11.620;2023-07-28T15:34:38;7.13;;;3.07;;
22388;SDS011;11362;48.102;11.620;2023-07-28T15:37:03;4.80;;;2.77;;
22388;SDS011;11362;48.102;11.620;2023-07-28T15:42:26;4.63;;;3.07;;
22388;SDS011;11362;48.102;11.620;2023-07-28T15:44:52;4.90;;;2.63;;
22388;SDS011;11362;48.102;11.620;2023-07-28T15:47:17;6.70;;;3.00;;
22388;SDS011;11362;48.102;11.620;2023-07-28T15:49:43;3.13;;;2.90;;
22388;SDS011;11362;48.102;11.620;2023-07-28T15:52:08;2.73;;;2.53;;
22388;SDS011;11362;48.102;11.620;2023-07-28T15:54:33;3.10;;;2.53;;
22388;SDS011;11362;48.102;11.620;2023-07-28T15:56:59;6.97;;;2.57;;